Time;durP1;ratioP1;P1;durP2;ratioP2;P2;SDS_P1;SDS_P2;PMS_P1;PMS_P2;Temp;Humidity;BMP_temperature;BMP_pressure;BME280_temperature;BME280_humidity;BME280_pressure;Samples;Min_cycle;Max_cycle;Signal;HPM_P1;HPM_P2
2022/05/30 00:00:54;;;;;;;4.10;3.00;;;;;;;7.99;94.16;96161.88;5073068;28;20204;-73
2022/05/30 00:03:20;;;;;;;4.00;3.43;;;;;;;8.09;93.53;96152.47;5071705;28;20186;-74
2022/05/30 00:05:47;;;;;;;4.67;3.67;;;;;;;7.94;94.50;96152.94;5072383;28;20318;-73
2022/05/30 00:08:18;;;;;;;5.93;3.93;;;;;;;7.92;94.45;96148.94;5072696;28;20189;-73
2022/05/30 00:10:44;;;;;;;4.30;3.90;;;;;;;7.93;95.18;96145.31;5072806;28;20231;-73
2022/05/30 00:13:11;;;;;;;4.50;3.73;;;;;;;7.90;95.15;96148.38;5073047;28;20196;-75
2022/05/30 00:15:37;;;;;;;5.30;3.90;;;;;;;8.04;94.35;96146.34;5072107;28;20185;-73
2022/05/30 00:18:03;;;;;;;4.07;3.60;;;;;;;8.22;92.60;96138.41;5054481;28;20700;-73
2022/05/30 00:20:28;;;;;;;4.20;3.80;;;;;;;8.02;94.06;96148.41;5072355;28;20176;-73
2022/05/30 00:22:54;;;;;;;4.63;3.70;;;;;;;7.96;94.19;96144.09;5072778;28;20185;-73
2022/05/30 00:25:19;;;;;;;4.17;3.80;;;;;;;7.87;94.82;96147.00;5073040;28;20186;-73
2022/05/30 00:27:45;;;;;;;4.40;3.90;;;;;;;7.74;95.09;96141.22;5072486;28;20185;-73
2022/05/30 00:30:12;;;;;;;5.20;3.70;;;;;;;7.83;95.10;96134.66;5072112;28;20185;-74
2022/05/30 00:32:39;;;;;;;6.63;4.17;;;;;;;7.64;95.71;96130.53;5072181;28;20189;-73
2022/05/30 00:35:05;;;;;;;5.77;4.33;;;;;;;7.72;95.45;96130.22;5070185;28;20741;-74
2022/05/30 00:37:31;;;;;;;4.03;3.67;;;;;;;7.67;95.54;96122.25;5054135;28;20252;-73
2022/05/30 00:39:56;;;;;;;4.73;3.93;;;;;;;7.64;95.71;96120.88;5072092;28;20213;-74
2022/05/30 00:42:24;;;;;;;4.57;3.77;;;;;;;7.55;95.80;96126.66;5072763;28;20212;-73
2022/05/30 00:44:50;;;;;;;4.83;3.87;;;;;;;7.51;96.07;96123.72;5072512;28;20217;-73
2022/05/30 00:47:17;;;;;;;4.10;3.70;;;;;;;7.43;96.46;96119.59;5072468;28;20531;-73
2022/05/30 00:49:45;;;;;;;5.10;3.80;;;;;;;7.40;96.72;96120.06;5072393;28;20181;-74
2022/05/30 00:52:17;;;;;;;5.20;3.57;;;;;;;7.76;95.11;96123.50;5072589;28;20192;-73
2022/05/30 00:54:52;;;;;;;4.27;3.87;;;;;;;7.56;95.61;96120.44;5072650;28;20248;-74
2022/05/30 00:57:22;;;;;;;4.57;4.13;;;;;;;7.61;96.04;96118.75;5072104;28;20270;-74
2022/05/30 00:59:59;;;;;;;5.40;4.73;;;;;;;7.47;96.87;96114.72;5071850;28;20231;-74
2022/05/30 01:02:31;;;;;;;5.33;4.07;;;;;;;7.62;95.91;96111.72;5072231;28;20181;-74
2022/05/30 01:07:42;;;;;;;4.53;4.13;;;;;;;7.49;96.04;96105.69;5072181;28;20193;-73
2022/05/30 01:10:10;;;;;;;4.60;4.20;;;;;;;7.43;97.30;96108.38;5071747;28;20249;-73
2022/05/30 01:12:49;;;;;;;4.90;4.37;;;;;;;7.31;97.88;96097.13;5072081;28;20181;-73
2022/05/30 01:15:16;;;;;;;4.20;3.90;;;;;;;7.56;96.32;96089.13;5072448;28;20193;-73
2022/05/30 01:17:55;;;;;;;5.50;4.90;;;;;;;6.79;100.00;96091.63;5071815;28;20224;-73
2022/05/30 01:20:28;;;;;;;6.10;4.73;;;;;;;7.08;100.00;96097.84;5075225;28;20622;-73
2022/05/30 01:23:06;;;;;;;7.50;4.50;;;;;;;7.13;99.97;96078.94;5075790;28;20180;-73
2022/05/30 01:25:57;;;;;;;4.93;4.50;;;;;;;7.34;98.23;96081.03;5076389;28;20169;-73
2022/05/30 01:28:32;;;;;;;5.13;4.63;;;;;;;7.50;97.13;96077.78;5060760;28;20176;-73
2022/05/30 01:30:57;;;;;;;5.97;5.07;;;;;;;7.47;96.65;96067.78;5075750;28;20184;-73
2022/05/30 01:33:23;;;;;;;5.73;5.23;;;;;;;6.93;100.00;96074.78;5073563;28;20188;-73
2022/05/30 01:35:49;;;;;;;5.57;5.03;;;;;;;6.91;100.00;96063.03;5074998;28;20268;-73
2022/05/30 01:38:14;;;;;;;6.87;5.00;;;;;;;6.99;100.00;96065.31;5074899;28;20324;-73
2022/05/30 01:40:39;;;;;;;6.17;5.03;;;;;;;7.05;100.00;96067.81;5075371;28;20209;-73
2022/05/30 01:43:05;;;;;;;4.60;4.20;;;;;;;6.96;100.00;96057.94;5075748;28;20185;-73
2022/05/30 01:45:31;;;;;;;5.20;4.70;;;;;;;7.06;99.67;96061.59;5075559;28;20276;-73
2022/05/30 01:47:57;;;;;;;6.80;5.40;;;;;;;7.19;98.62;96054.63;5075508;28;20218;-73
2022/05/30 01:50:27;;;;;;;7.17;4.83;;;;;;;7.12;98.19;96048.69;5075451;28;20185;-72
2022/05/30 01:52:52;;;;;;;7.53;5.10;;;;;;;7.05;98.27;96057.41;5075724;28;20270;-73
2022/05/30 01:55:17;;;;;;;5.23;4.27;;;;;;;7.07;98.37;96049.38;5075357;28;20213;-73
2022/05/30 01:57:43;;;;;;;4.87;4.47;;;;;;;6.95;98.24;96053.75;5075224;28;20198;-73
2022/05/30 02:00:12;;;;;;;4.97;4.40;;;;;;;6.93;98.33;96055.75;5074695;28;20225;-73
2022/05/30 02:02:38;;;;;;;4.60;4.07;;;;;;;6.96;97.86;96056.13;5074905;28;20230;-73
2022/05/30 02:05:07;;;;;;;9.43;4.70;;;;;;;6.92;97.58;96061.97;5074193;28;20189;-73
2022/05/30 02:07:33;;;;;;;4.90;4.40;;;;;;;6.98;97.02;96048.06;5074895;28;20196;-73
2022/05/30 02:09:58;;;;;;;4.97;3.90;;;;;;;7.13;96.21;96055.50;5074769;28;20267;-73
2022/05/30 02:12:24;;;;;;;4.60;4.20;;;;;;;7.07;96.08;96060.59;5074948;28;20319;-73
2022/05/30 02:14:49;;;;;;;5.17;4.40;;;;;;;7.13;95.18;96055.50;5074943;28;20630;-73
2022/05/30 02:17:14;;;;;;;5.17;3.87;;;;;;;7.15;94.90;96056.06;5074855;28;20275;-73
2022/05/30 02:19:43;;;;;;;3.93;3.63;;;;;;;6.88;95.87;96055.63;5074916;28;20267;-73
2022/05/30 02:22:15;;;;;;;6.10;4.23;;;;;;;6.96;95.79;96055.34;5074760;28;20650;-73
2022/05/30 02:24:41;;;;;;;4.70;4.27;;;;;;;7.23;94.17;96055.75;5074970;28;20227;-73
2022/05/30 02:27:10;;;;;;;4.63;3.40;;;;;;;6.97;95.28;96059.50;5074545;28;20223;-73
2022/05/30 02:29:36;;;;;;;4.07;3.77;;;;;;;6.98;94.87;96058.50;5074463;28;20214;-73
2022/05/30 02:32:01;;;;;;;4.37;3.97;;;;;;;7.17;93.94;96059.25;5074690;28;20271;-73
2022/05/30 02:37:11;;;;;;;4.90;4.33;;;;;;;6.96;94.96;96048.31;5074161;28;20715;-73
2022/05/30 02:39:36;;;;;;;4.70;4.30;;;;;;;6.79;96.17;96064.78;5074478;28;20181;-73
2022/05/30 02:42:02;;;;;;;5.00;4.50;;;;;;;6.91;95.15;96061.19;5074606;28;20212;-73
2022/05/30 02:44:28;;;;;;;4.97;4.47;;;;;;;6.89;95.57;96059.84;5074646;28;20189;-73
2022/05/30 02:46:57;;;;;;;6.53;4.47;;;;;;;6.96;95.30;96057.94;5074167;28;20215;-73
2022/05/30 02:49:23;;;;;;;5.13;4.50;;;;;;;6.77;95.76;96061.59;5073513;28;20233;-73
2022/05/30 02:51:49;;;;;;;5.07;4.57;;;;;;;6.99;94.89;96066.09;5074183;28;20272;-73
2022/05/30 02:54:15;;;;;;;5.33;4.83;;;;;;;6.99;94.29;96070.50;5074001;28;20269;-73
2022/05/30 02:56:41;;;;;;;5.67;4.77;;;;;;;6.80;95.11;96064.53;5074108;28;20209;-73
2022/05/30 02:59:07;;;;;;;5.00;4.50;;;;;;;6.90;95.03;96072.66;5074443;28;20248;-73
2022/05/30 03:01:34;;;;;;;4.73;4.33;;;;;;;6.88;94.89;96066.84;5073881;28;20606;-73
2022/05/30 03:04:07;;;;;;;5.07;4.53;;;;;;;6.78;95.66;96073.59;5062366;28;20178;-73
2022/05/30 03:06:33;;;;;;;6.33;5.07;;;;;;;6.73;95.76;96071.66;5073581;28;20189;-73
2022/05/30 03:08:59;;;;;;;6.70;5.20;;;;;;;6.78;95.51;96079.63;5058734;28;20193;-73
2022/05/30 03:11:25;;;;;;;7.33;5.10;;;;;;;6.71;95.78;96083.31;5064537;28;20623;-73
2022/05/30 03:13:51;;;;;;;7.33;5.20;;;;;;;6.73;95.63;96081.28;5073779;28;20185;-73
2022/05/30 03:16:16;;;;;;;5.73;5.17;;;;;;;6.75;95.91;96080.03;5073716;28;20209;-73
2022/05/30 03:18:42;;;;;;;5.50;5.03;;;;;;;6.72;95.72;96077.88;5073638;28;20209;-73
2022/05/30 03:21:08;;;;;;;6.00;5.40;;;;;;;6.78;96.16;96081.41;5073593;28;20181;-73
2022/05/30 03:23:33;;;;;;;8.20;6.47;;;;;;;6.73;97.04;96076.88;5073806;28;20592;-73
2022/05/30 03:25:59;;;;;;;8.53;7.60;;;;;;;6.79;97.49;96083.00;5072893;28;20589;-73
2022/05/30 03:28:24;;;;;;;10.43;8.20;;;;;;;6.69;98.40;96083.50;5073391;28;20196;-73
2022/05/30 03:30:50;;;;;;;11.00;8.57;;;;;;;6.69;98.80;96084.31;5073232;28;20542;-73
2022/05/30 03:33:16;;;;;;;9.53;8.47;;;;;;;6.71;99.88;96094.50;5071076;28;20703;-73
2022/05/30 03:35:42;;;;;;;10.13;8.97;;;;;;;6.62;100.00;96091.44;5072580;28;20703;-73
2022/05/30 03:38:08;;;;;;;10.20;8.47;;;;;;;6.83;100.00;96094.56;5073381;28;20261;-73
2022/05/30 03:40:37;;;;;;;10.13;8.70;;;;;;;6.86;99.27;96094.91;5073647;28;20612;-73
2022/05/30 03:43:07;;;;;;;9.37;8.37;;;;;;;6.85;98.68;96097.75;5072291;28;20547;-73
2022/05/30 03:45:33;;;;;;;11.07;8.23;;;;;;;6.82;99.41;96090.38;5073139;28;20177;-73
2022/05/30 03:47:59;;;;;;;8.70;7.90;;;;;;;6.92;98.89;96096.66;5073050;28;20181;-73
2022/05/30 03:50:25;;;;;;;8.27;7.43;;;;;;;7.06;98.56;96092.06;5072914;28;20189;-74
2022/05/30 03:52:51;;;;;;;7.90;7.03;;;;;;;7.18;97.80;96089.50;5072980;28;20178;-73
2022/05/30 03:55:19;;;;;;;7.67;6.60;;;;;;;7.27;97.05;96088.16;5072960;28;20272;-73
2022/05/30 03:57:45;;;;;;;6.47;5.87;;;;;;;7.24;97.68;96094.63;5072881;28;20860;-73
2022/05/30 04:00:14;;;;;;;7.27;5.67;;;;;;;7.41;96.47;96095.56;5072841;28;20212;-73
2022/05/30 04:02:40;;;;;;;7.33;6.53;;;;;;;7.23;97.90;96100.84;5071528;28;20215;-74
2022/05/30 04:05:06;;;;;;;7.33;6.23;;;;;;;7.49;96.19;96099.66;5072949;28;20200;-73
2022/05/30 04:07:31;;;;;;;5.83;5.23;;;;;;;7.67;94.59;96106.63;5073202;28;20688;-73
2022/05/30 04:09:57;;;;;;;5.50;5.00;;;;;;;7.86;92.74;96106.28;5071947;28;20181;-73
2022/05/30 04:12:23;;;;;;;7.67;5.20;;;;;;;7.88;92.80;96103.47;5072701;28;20268;-74
2022/05/30 04:14:56;;;;;;;6.87;5.00;;;;;;;8.05;91.47;96104.38;5072622;28;20204;-73
2022/05/30 04:17:22;;;;;;;7.40;4.00;;;;;;;8.12;89.98;96093.81;5072767;28;20212;-73
2022/05/30 04:19:48;;;;;;;5.83;4.00;;;;;;;8.14;89.88;96099.59;5072914;28;20184;-73
2022/05/30 04:22:14;;;;;;;4.33;3.60;;;;;;;8.74;86.49;96095.69;5072191;28;20190;-74
2022/05/30 04:24:39;;;;;;;3.77;3.30;;;;;;;8.56;86.85;96100.28;5072366;28;20695;-74
2022/05/30 04:27:05;;;;;;;4.10;3.70;;;;;;;8.74;85.91;96094.91;5072821;28;20184;-73
2022/05/30 04:29:31;;;;;;;6.60;3.23;;;;;;;9.42;83.09;96084.34;5072358;28;20189;-74
2022/05/30 04:31:56;;;;;;;4.87;3.07;;;;;;;9.29;81.66;96092.53;5070077;28;20326;-73
2022/05/30 04:34:22;;;;;;;4.10;3.50;;;;;;;9.78;81.63;96090.97;5071871;28;20207;-73
2022/05/30 04:36:47;;;;;;;3.83;3.00;;;;;;;10.19;79.17;96091.59;5072344;28;20228;-73
2022/05/30 04:39:13;;;;;;;3.23;2.93;;;;;;;10.37;77.49;96102.59;5072261;28;20194;-74
2022/05/30 04:41:39;;;;;;;4.10;3.20;;;;;;;9.84;79.69;96100.50;5072430;28;20181;-73
2022/05/30 04:44:05;;;;;;;3.63;3.13;;;;;;;9.88;80.15;96101.59;5072235;28;20283;-70
2022/05/30 04:46:30;;;;;;;6.27;3.97;;;;;;;10.32;78.39;96101.72;5072355;28;20173;-73
2022/05/30 04:48:55;;;;;;;3.90;3.53;;;;;;;10.93;75.91;96108.53;5072102;28;20561;-71
2022/05/30 04:51:21;;;;;;;5.23;3.33;;;;;;;11.14;75.50;96107.72;5072496;28;20188;-74
2022/05/30 04:53:46;;;;;;;4.90;3.40;;;;;;;11.14;75.37;96105.09;5074487;28;20192;-73
2022/05/30 04:56:12;;;;;;;6.73;3.60;;;;;;;11.18;75.50;96110.66;5076004;28;20177;-74
2022/05/30 04:58:37;;;;;;;4.90;3.10;;;;;;;11.81;71.77;96111.78;5076756;28;20259;-73
2022/05/30 05:01:06;;;;;;;3.50;2.80;;;;;;;11.41;72.76;96107.75;5076450;28;20259;-74
2022/05/30 05:03:33;;;;;;;5.03;2.77;;;;;;;11.38;71.64;96104.78;5064873;28;20544;-73
2022/05/30 05:06:04;;;;;;;3.17;2.53;;;;;;;11.94;70.65;96108.72;5065149;28;20238;-73
2022/05/30 05:08:51;;;;;;;4.67;3.00;;;;;;;12.54;68.51;96102.28;5076286;28;20173;-73
2022/05/30 05:11:31;;;;;;;4.30;2.80;;;;;;;12.30;69.96;96101.88;5075988;28;20197;-73
2022/05/30 05:13:57;;;;;;;4.20;3.33;;;;;;;11.97;71.18;96103.00;5076033;28;20622;-73
2022/05/30 05:16:25;;;;;;;3.43;3.13;;;;;;;11.93;71.32;96109.75;5076232;28;20201;-73
2022/05/30 05:18:51;;;;;;;4.13;3.07;;;;;;;12.39;69.35;96114.28;5076006;28;20519;-72
2022/05/30 05:21:18;;;;;;;3.17;2.87;;;;;;;12.48;68.78;96114.63;5076373;28;20181;-72
2022/05/30 05:23:45;;;;;;;4.73;3.40;;;;;;;11.53;72.18;96121.50;5057350;28;20185;-72
2022/05/30 05:26:10;;;;;;;3.40;3.10;;;;;;;11.42;72.26;96130.31;5075590;28;20636;-72
2022/05/30 05:28:35;;;;;;;3.83;3.43;;;;;;;10.46;76.94;96129.19;5075815;28;20209;-72
2022/05/30 05:31:01;;;;;;;4.10;3.60;;;;;;;11.63;72.94;96131.28;5074564;28;20610;-71
2022/05/30 05:33:27;;;;;;;3.83;2.97;;;;;;;10.96;73.91;96134.28;5074704;28;20542;-73
2022/05/30 05:35:52;;;;;;;3.37;3.03;;;;;;;10.32;77.82;96133.94;5075545;28;20268;-70
2022/05/30 05:38:18;;;;;;;3.03;2.73;;;;;;;10.73;76.75;96142.38;5075163;28;20225;-70
2022/05/30 05:40:45;;;;;;;4.13;2.90;;;;;;;10.82;76.53;96138.28;5075908;28;20216;-71
2022/05/30 05:43:11;;;;;;;5.43;3.50;;;;;;;11.03;76.76;96137.50;5075287;28;20235;-71
2022/05/30 05:45:39;;;;;;;3.60;3.27;;;;;;;11.00;75.92;96143.22;5075703;28;20181;-71
2022/05/30 05:48:05;;;;;;;4.17;3.00;;;;;;;12.02;72.14;96145.84;5075623;28;20189;-70
2022/05/30 05:50:31;;;;;;;3.90;3.03;;;;;;;11.86;72.01;96144.13;5075758;28;20311;-71
2022/05/30 05:52:56;;;;;;;2.90;2.70;;;;;;;11.67;73.30;96150.75;5057638;28;20224;-72
2022/05/30 05:55:22;;;;;;;2.83;2.60;;;;;;;12.16;71.72;96140.13;5075376;28;20264;-72
2022/05/30 05:57:48;;;;;;;2.67;2.47;;;;;;;12.20;71.14;96155.16;5074087;28;20634;-73
2022/05/30 06:00:14;;;;;;;3.93;2.70;;;;;;;12.21;72.47;96150.69;5075064;28;20185;-73
2022/05/30 06:02:40;;;;;;;3.07;2.50;;;;;;;12.47;71.47;96145.38;5074184;28;20193;-72
2022/05/30 06:05:08;;;;;;;2.83;2.63;;;;;;;12.93;68.29;96148.22;5073792;28;20174;-76
2022/05/30 06:07:36;;;;;;;2.93;2.67;;;;;;;12.68;69.57;96146.25;5074798;28;20193;-73
2022/05/30 06:10:06;;;;;;;4.10;2.57;;;;;;;12.75;69.51;96154.72;5074344;28;20650;-73
2022/05/30 06:12:37;;;;;;;2.80;2.30;;;;;;;12.73;68.48;96156.81;5057079;28;20182;-75
2022/05/30 06:15:04;;;;;;;2.93;2.50;;;;;;;12.64;69.51;96147.81;5067320;28;20266;-69
2022/05/30 06:17:32;;;;;;;2.53;2.37;;;;;;;12.67;69.29;96141.25;5074846;28;20259;-68
2022/05/30 06:19:58;;;;;;;4.27;2.67;;;;;;;12.34;70.03;96152.88;5074127;28;20706;-71
2022/05/30 06:22:24;;;;;;;4.03;2.90;;;;;;;12.20;71.25;96151.75;5071783;28;20230;-71
2022/05/30 06:24:49;;;;;;;4.37;3.50;;;;;;;12.54;70.18;96142.50;5074207;28;20177;-71
2022/05/30 06:27:17;;;;;;;5.13;2.90;;;;;;;12.21;69.88;96150.69;5074605;28;20193;-72
2022/05/30 06:29:42;;;;;;;5.07;3.10;;;;;;;12.13;70.68;96156.41;5074243;28;20186;-72
2022/05/30 06:32:08;;;;;;;3.80;2.90;;;;;;;12.13;71.00;96157.22;5073014;28;20192;-70
2022/05/30 06:34:34;;;;;;;3.20;2.67;;;;;;;11.93;72.92;96163.06;5073978;28;20189;-73
2022/05/30 06:36:59;;;;;;;3.23;2.97;;;;;;;12.53;70.02;96171.69;5073512;28;20225;-73
2022/05/30 06:39:26;;;;;;;3.13;2.90;;;;;;;12.88;68.56;96164.75;5074253;28;20188;-71
2022/05/30 06:41:52;;;;;;;3.67;2.80;;;;;;;12.57;70.16;96172.75;5073547;28;20196;-71
2022/05/30 06:44:17;;;;;;;4.70;2.87;;;;;;;12.90;68.38;96167.94;5074748;28;20177;-71
2022/05/30 06:46:42;;;;;;;4.93;3.50;;;;;;;12.04;70.60;96177.88;5074013;28;20189;-70
2022/05/30 06:49:08;;;;;;;4.80;3.50;;;;;;;12.15;71.00;96178.75;5074446;28;20196;-72
2022/05/30 06:51:35;;;;;;;3.90;3.50;;;;;;;11.90;71.39;96189.06;5072292;28;20271;-71
2022/05/30 06:54:01;;;;;;;4.23;3.00;;;;;;;11.99;72.31;96182.31;5072055;28;20185;-71
2022/05/30 06:56:31;;;;;;;5.33;3.30;;;;;;;11.54;72.26;96186.03;5071850;28;20181;-70
2022/05/30 06:58:57;;;;;;;3.93;3.37;;;;;;;12.21;71.11;96192.72;5072779;28;20272;-72
2022/05/30 07:01:25;;;;;;;3.70;3.40;;;;;;;12.93;67.72;96189.53;5078015;28;20641;-71
2022/05/30 07:03:51;;;;;;;7.37;3.60;;;;;;;12.55;66.71;96195.84;5069399;28;20272;-72
2022/05/30 07:06:22;;;;;;;4.50;3.10;;;;;;;12.80;66.33;96185.50;5072898;28;20292;-72
2022/05/30 07:08:48;;;;;;;3.30;3.03;;;;;;;13.19;64.51;96188.63;5073458;28;20197;-71
2022/05/30 07:11:18;;;;;;;5.20;3.33;;;;;;;13.01;64.56;96189.81;5073648;28;20607;-71
2022/05/30 07:13:44;;;;;;;3.40;2.60;;;;;;;13.17;63.62;96196.75;5055432;28;20177;-74
2022/05/30 07:16:10;;;;;;;5.23;2.70;;;;;;;13.30;63.03;96198.13;5073025;28;20185;-72
2022/05/30 07:18:37;;;;;;;6.53;3.63;;;;;;;13.23;63.61;96198.38;5072197;28;20539;-71
2022/05/30 07:21:04;;;;;;;9.03;4.03;;;;;;;13.18;63.93;96195.72;5073761;28;20679;-73
2022/05/30 07:23:31;;;;;;;4.63;3.67;;;;;;;12.40;67.13;96199.19;5073100;28;20181;-71
2022/05/30 07:26:03;;;;;;;3.63;3.30;;;;;;;13.17;62.84;96201.22;5073563;28;20193;-71
2022/05/30 07:28:29;;;;;;;4.87;3.50;;;;;;;13.53;63.07;96200.31;5072896;28;20586;-71
2022/05/30 07:31:07;;;;;;;4.27;3.13;;;;;;;13.59;61.44;96203.75;5070615;28;20211;-74
2022/05/30 07:33:34;;;;;;;6.40;3.10;;;;;;;13.11;63.45;96196.97;5073178;28;20196;-71
2022/05/30 07:36:00;;;;;;;6.43;3.00;;;;;;;12.93;64.19;96196.34;5072269;28;20268;-71
2022/05/30 07:38:26;;;;;;;8.47;3.17;;;;;;;12.97;62.73;96194.03;5067615;28;20205;-72
2022/05/30 07:40:52;;;;;;;2.73;2.40;;;;;;;13.31;61.20;96197.09;5073111;28;20189;-74
2022/05/30 07:43:18;;;;;;;3.33;2.20;;;;;;;13.77;59.73;96197.19;5072995;28;20657;-72
2022/05/30 07:45:43;;;;;;;3.83;2.83;;;;;;;13.80;60.05;96197.47;5073031;28;20185;-71
2022/05/30 07:48:09;;;;;;;3.30;2.87;;;;;;;13.55;61.36;96197.41;5072956;28;20178;-71
2022/05/30 07:50:35;;;;;;;6.70;3.00;;;;;;;13.75;60.91;96200.09;5073054;28;20181;-72
2022/05/30 07:53:01;;;;;;;2.83;2.60;;;;;;;13.83;60.28;96201.41;5073003;28;20208;-71
2022/05/30 07:55:29;;;;;;;5.70;2.50;;;;;;;14.30;59.71;96194.09;5072771;28;20634;-71
2022/05/30 07:57:55;;;;;;;5.33;2.30;;;;;;;13.73;59.17;96204.84;5072703;28;20193;-72
2022/05/30 08:00:23;;;;;;;6.27;2.80;;;;;;;13.66;58.58;96209.56;5072601;28;20243;-72
2022/05/30 08:02:49;;;;;;;3.47;2.43;;;;;;;13.88;59.76;96204.84;5072046;28;20192;-72
2022/05/30 08:05:17;;;;;;;4.70;2.73;;;;;;;14.10;59.07;96201.97;5072960;28;20642;-71
2022/05/30 08:07:44;;;;;;;3.17;2.17;;;;;;;14.25;55.75;96203.84;5072612;28;20197;-71
2022/05/30 08:10:11;;;;;;;3.00;2.07;;;;;;;14.31;55.83;96200.94;5072798;28;20216;-72
2022/05/30 08:12:36;;;;;;;13.77;2.57;;;;;;;14.40;55.07;96202.03;5072675;28;20176;-71
2022/05/30 08:15:02;;;;;;;1.90;1.80;;;;;;;14.52;55.53;96201.75;5072165;28;20588;-72
2022/05/30 08:17:28;;;;;;;3.60;2.30;;;;;;;14.44;55.49;96210.97;5072338;28;20197;-72
2022/05/30 08:19:53;;;;;;;4.10;2.50;;;;;;;13.90;56.05;96205.41;5072526;28;20185;-72
2022/05/30 08:22:19;;;;;;;4.07;2.20;;;;;;;14.27;55.27;96204.34;5072445;28;20707;-73
2022/05/30 08:24:51;;;;;;;3.77;2.40;;;;;;;14.25;55.53;96212.53;5071783;28;20277;-72
2022/05/30 08:27:17;;;;;;;2.73;2.13;;;;;;;14.12;55.79;96205.94;5071922;28;20634;-73
2022/05/30 08:29:43;;;;;;;4.53;2.10;;;;;;;13.88;55.85;96204.06;5071483;28;20278;-73
2022/05/30 08:32:08;;;;;;;2.53;2.10;;;;;;;13.94;56.65;96198.53;5072424;28;20268;-72
2022/05/30 08:34:35;;;;;;;2.10;2.00;;;;;;;14.29;55.83;96200.41;5071755;28;20263;-73
2022/05/30 08:37:01;;;;;;;5.13;2.17;;;;;;;14.20;53.47;96207.28;5072203;28;20229;-71
2022/05/30 08:42:12;;;;;;;4.43;2.03;;;;;;;13.97;51.88;96198.03;5072262;28;20242;-72
2022/05/30 08:44:38;;;;;;;2.00;1.40;;;;;;;14.66;50.97;96194.88;5071954;28;20276;-72
2022/05/30 08:47:19;;;;;;;2.97;1.77;;;;;;;14.83;51.88;96202.47;5072387;28;20196;-72
2022/05/30 08:49:49;;;;;;;3.87;1.93;;;;;;;14.43;52.93;96204.13;5072406;28;20185;-72
2022/05/30 08:52:25;;;;;;;3.47;1.77;;;;;;;15.24;50.66;96201.31;5072203;28;20256;-73
2022/05/30 08:55:23;;;;;;;2.13;1.80;;;;;;;14.49;51.10;96202.28;5072138;28;20169;-72
2022/05/30 08:58:30;;;;;;;3.27;1.90;;;;;;;14.61;51.16;96197.50;5070428;28;20193;-72
2022/05/30 09:01:03;;;;;;;3.67;1.70;;;;;;;14.53;50.78;96198.84;5044396;28;20684;-71
2022/05/30 09:04:06;;;;;;;3.73;1.50;;;;;;;15.29;48.81;96197.84;5070982;28;20190;-72
2022/05/30 09:06:35;;;;;;;3.23;1.30;;;;;;;15.67;48.60;96199.81;5057276;28;20181;-72
2022/05/30 09:09:27;;;;;;;2.83;1.67;;;;;;;15.08;48.04;96197.16;5071865;28;20185;-72
2022/05/30 09:12:19;;;;;;;3.43;1.83;;;;;;;15.33;47.83;96197.03;5072175;28;20277;-71
2022/05/30 09:14:51;;;;;;;3.30;1.60;;;;;;;15.55;47.11;96202.00;5072106;28;20339;-73
2022/05/30 09:17:23;;;;;;;2.47;1.40;;;;;;;15.33;47.21;96196.25;5072228;28;20288;-72
2022/05/30 09:19:48;;;;;;;2.67;1.30;;;;;;;15.27;47.53;96200.75;5072139;28;20525;-72
2022/05/30 09:22:16;;;;;;;3.43;1.30;;;;;;;14.50;45.65;96206.50;5071800;28;20292;-73
2022/05/30 09:25:55;;;;;;;2.00;1.33;;;;;;;14.47;47.13;96201.75;5053205;28;20598;-72
2022/05/30 09:27:33;;;;;;;3.07;1.30;;;;;;;14.76;46.66;96197.50;5070673;28;20207;-72
2022/05/30 09:30:00;;;;;;;2.10;1.57;;;;;;;14.83;46.60;96191.94;5070353;28;20330;-72
2022/05/30 09:33:06;;;;;;;2.70;1.70;;;;;;;14.68;46.35;96199.88;5072076;28;20189;-72
2022/05/30 09:35:33;;;;;;;2.83;1.30;;;;;;;14.30;45.93;96196.72;4988877;28;20287;-72
2022/05/30 09:38:21;;;;;;;1.63;1.40;;;;;;;14.37;45.65;96207.03;4989803;28;20235;-73
2022/05/30 09:40:52;;;;;;;2.50;1.30;;;;;;;14.33;44.08;96209.38;4981453;28;20231;-72
2022/05/30 09:43:58;;;;;;;1.50;1.40;;;;;;;14.53;43.33;96206.78;4974964;28;20192;-72
2022/05/30 09:46:36;;;;;;;3.27;1.33;;;;;;;14.62;44.05;96196.47;4978915;28;20649;-73
2022/05/30 09:49:14;;;;;;;1.33;1.27;;;;;;;14.58;44.47;96200.69;4993840;28;20212;-72
2022/05/30 09:51:43;;;;;;;1.43;1.33;;;;;;;14.74;45.17;96190.91;4993637;28;20241;-72
2022/05/30 09:54:12;;;;;;;2.43;1.40;;;;;;;14.93;44.41;96202.47;4975768;28;20197;-72
2022/05/30 09:56:42;;;;;;;1.33;1.23;;;;;;;15.14;43.82;96198.72;4978921;28;20188;-72
2022/05/30 09:59:31;;;;;;;2.43;1.30;;;;;;;15.30;43.25;96200.25;4983775;28;20203;-72
2022/05/30 10:01:56;;;;;;;1.40;1.30;;;;;;;15.61;42.06;96198.25;4987896;28;20200;-73
2022/05/30 10:04:41;;;;;;;2.37;1.27;;;;;;;15.77;42.09;96199.75;4975536;28;20197;-72
2022/05/30 10:07:09;;;;;;;1.30;1.20;;;;;;;15.33;43.49;96191.75;5055021;28;20299;-72
2022/05/30 10:09:41;;;;;;;1.50;1.10;;;;;;;15.09;43.18;96198.75;5074647;28;20185;-71
2022/05/30 10:12:08;;;;;;;1.80;1.10;;;;;;;15.06;42.64;96201.09;5074062;28;20173;-73
2022/05/30 10:14:35;;;;;;;2.60;1.20;;;;;;;15.13;41.91;96194.50;5074074;28;20192;-72
2022/05/30 10:17:26;;;;;;;1.00;1.00;;;;;;;14.58;42.37;96198.06;5074381;28;20211;-72
2022/05/30 10:19:52;;;;;;;1.93;1.00;;;;;;;14.73;41.91;96199.88;5074627;28;20181;-73
2022/05/30 10:28:32;;;;;;;1.33;1.20;;;;;;;15.10;42.32;96197.66;5073206;28;20540;-72
2022/05/30 10:31:10;;;;;;;1.53;1.10;;;;;;;14.95;40.22;96198.50;5073173;28;20278;-73
2022/05/30 10:34:20;;;;;;;1.63;1.00;;;;;;;14.75;40.21;96203.03;5074393;28;20208;-72
2022/05/30 10:36:51;;;;;;;2.87;1.40;;;;;;;14.91;40.02;96209.88;5041265;28;20297;-72
2022/05/30 10:39:31;;;;;;;2.23;1.07;;;;;;;15.23;39.90;96205.00;5053926;28;20194;-73
2022/05/30 10:42:20;;;;;;;1.43;1.00;;;;;;;15.72;39.62;96205.06;5051599;28;20188;-72
2022/05/30 10:44:51;;;;;;;2.10;1.07;;;;;;;15.64;39.39;96210.94;5054358;28;20178;-72
2022/05/30 10:47:46;;;;;;;1.33;1.10;;;;;;;15.81;39.04;96200.00;5054297;28;20232;-72
2022/05/30 10:50:20;;;;;;;1.17;1.10;;;;;;;16.06;39.46;96206.97;5036576;28;20205;-72
2022/05/30 10:52:54;;;;;;;1.70;1.10;;;;;;;16.14;39.37;96203.75;5053958;28;20177;-72
2022/05/30 10:55:28;;;;;;;1.10;1.00;;;;;;;16.03;39.39;96204.91;5054078;28;20174;-72
2022/05/30 10:58:01;;;;;;;3.63;1.43;;;;;;;15.94;38.65;96203.91;5040003;28;20197;-72
2022/05/30 11:00:32;;;;;;;2.70;1.10;;;;;;;16.07;38.52;96206.72;5051758;28;20186;-72
2022/05/30 11:03:06;;;;;;;2.70;1.13;;;;;;;15.97;38.43;96209.44;5049782;28;20193;-72
2022/05/30 11:05:43;;;;;;;1.53;1.10;;;;;;;15.64;38.95;96210.94;5053026;28;20639;-71
2022/05/30 11:08:25;;;;;;;1.13;0.90;;;;;;;15.56;39.73;96208.84;5053637;28;20177;-71
2022/05/30 11:11:14;;;;;;;1.07;1.07;;;;;;;15.78;39.07;96214.56;5053710;28;20665;-72
2022/05/30 11:13:54;;;;;;;1.10;0.97;;;;;;;15.74;38.80;96218.00;5053856;28;20185;-72
2022/05/30 11:16:32;;;;;;;2.33;1.10;;;;;;;15.71;38.05;96218.56;5053569;28;20630;-72
2022/05/30 11:19:07;;;;;;;1.27;1.10;;;;;;;15.40;38.48;96212.59;5040237;28;20198;-72
2022/05/30 11:21:59;;;;;;;2.20;1.30;;;;;;;15.81;38.85;96215.88;5053462;28;20192;-72
2022/05/30 11:24:25;;;;;;;1.47;1.00;;;;;;;15.93;38.41;96221.63;5053127;28;20185;-71
2022/05/30 11:27:30;;;;;;;2.63;1.20;;;;;;;16.29;37.98;96214.22;5052689;28;20182;-72
2022/05/30 11:30:10;;;;;;;2.87;1.00;;;;;;;16.09;37.43;96217.00;5041120;28;20189;-72
2022/05/30 11:33:32;;;;;;;1.77;1.20;;;;;;;16.26;36.12;96217.41;5052274;28;20170;-72
2022/05/30 11:36:28;;;;;;;1.77;1.20;;;;;;;16.37;36.21;96220.78;5024312;28;20201;-72
2022/05/30 11:39:23;;;;;;;1.63;1.10;;;;;;;16.55;35.55;96222.75;5050131;28;20210;-72
2022/05/30 11:41:55;;;;;;;1.40;0.93;;;;;;;17.03;33.19;96231.56;5048836;28;20194;-72
2022/05/30 11:44:48;;;;;;;1.10;1.10;;;;;;;16.80;33.86;96229.69;5052664;28;20189;-72
2022/05/30 11:47:30;;;;;;;2.50;0.90;;;;;;;16.95;33.78;96232.97;5052484;28;20261;-72
2022/05/30 11:50:23;;;;;;;1.37;0.97;;;;;;;17.40;34.44;96222.94;5052720;28;20178;-72
2022/05/30 11:53:16;;;;;;;3.37;1.37;;;;;;;17.10;33.68;96233.91;5052581;28;20267;-71
2022/05/30 11:56:07;;;;;;;1.88;1.63;;;;;;;17.60;34.12;96224.59;5045174;28;20718;-72
2022/05/30 11:58:55;;;;;;;1.08;0.95;;;;;;;17.76;33.31;96220.69;5050622;28;20182;-71
2022/05/30 12:01:23;;;;;;;2.03;1.20;;;;;;;17.95;32.74;96226.75;5051403;28;20272;-72
2022/05/30 12:04:03;;;;;;;1.40;1.30;;;;;;;18.03;32.10;96228.00;5050560;28;20178;-72
2022/05/30 12:06:55;;;;;;;1.55;1.15;;;;;;;17.32;33.34;96237.63;5052036;28;20264;-73